Aérodrome :
LOGIN :

S'inscrire | Disclaimer

   EN    FR    IT 

 










Légende :    VFR   VFR Marginal   IFR   IFR Intensif   IFR Très Intensif
Visi : 
Plafond : 
>= 8 km
>= 3000ft
5 à 8 km
1000 à 3000 ft
1500m à 5 km
500 à 1000 ft
800 à 1500m
200 à 500 ft
< 800m
< 200 ft
Symboles :   Orages  Brouillard  Fortes neiges  Fortes précipitations  Vent > 20 kt
SIGMETs :   Divers  Orages  Givrage  Turbulence  Onde Orograph.  Cendres Volcan.






- Altitude de l'aérodrome : 681 ft
- Code IATA : LBA


EGNM - Leeds Bradford

DERNIER METAR :
  • 190620Z 21002KT 9999 FEW008 BKN011 08/07 Q0994

METARs EXPIRÉS :
  • 190550Z VRB03KT 9999 FEW009 BKN012 08/07 Q0994
  • 190520Z VRB02KT 9999 FEW009 BKN012 08/07 Q0994
  • 190450Z VRB02KT 9999 SCT012 SCT018 08/07 Q0994
  • 190420Z VRB03KT 9999 FEW007 BKN010 08/07 Q0994
  • 190320Z VRB02KT 9999 FEW010 SCT035 08/07 Q0994

TAF TAF EGNM
Valide du 19 à 06h jusqu'au 20 à 06h UTC


190504Z 1906/2006 18006KT 9999 FEW012 SCT025
TEMPO 1906/1909 3000 SHRA BR BKN006
TEMPO 1909/1919 6000 SHRA
PROB30
TEMPO 1912/1919 4000 +SHRA BKN009CB
BECMG 1915/1918 36010KT
BECMG 1921/1924 30006KT
PROB30 1922/2006 4000 BR BKN004
ATIS : +44 113 250 9696 (x2489)



MET'MAP, la Météo Aéronautique d'un coup d'oeil ! - Copyright ORBIFLY Décembre 2007 - Disclaimer

ORBIFLY MET'MAP TEAM :

Programmation & Développement : Alexandra Zaïnal
Conception & Développement : Baudouin d'Aumeries
Co-Programmation & Développement : Marc-Olivier Méhu
Soutien technique & logistique : Manuel Goepfert

Contact : metmap@orbifly.com




SOURCES & CREDITS :

   NOAA